Sudbury Airport
CYSB : now visible

Airfield :











YOU CAN JOIN US ON...

 
LOGIN :

Register | Disclaimer

   EN    FR    IT 

 









Legend :    VFR   Marginal VFR   IFR   Intensive IFR   Very Intensive IFR
Visi :
Ceiling :
>= 8 km
>= 3000ft
5 to 8 km
1000 to 3000 ft
1500m to 5 km
500 to 1000 ft
800 to 1500m
200 to 500 ft
< 800m
< 200 ft
Symbols :   Thunderstorms  Fog  Heavy snow  Heavy precipitations  Wind > 20 kt







- Airport Elevation : 1141 ft
- IATA code : YSB


CYSB - Sudbury

CURRENT METAR :
  • 181900Z 18013G18KT 20SM FEW025 BKN040 OVC100 27/16 A2984 RMK CU1SC5AC2 SLP105 DENSITY ALT 2900FT

EXPIRED METARs :
  • 181800Z 21011G17KT 20SM FEW025 BKN060 OVC110 25/17 A2987 RMK CU1SC5AC2 SLP114 DENSITY ALT 2700FT
  • 181700Z 17016KT 160V220 20SM FEW025 BKN060 BKN110 27/17 A2987 RMK CU2SC4AC1 SLP113 DENSITY ALT 2900FT
  • 181600Z 19012G18KT 20SM FEW025 SCT050 BKN090 BKN240 25/18 A2989 RMK CU1SC2AC2CI1 SLP122 DENSITY ALT 2700FT

TAF TAF CYSB
Valid from the 18 at 14:00 until the 19 at 02:00 UTC


181340Z 1814/1902 14008KT P6SM BKN015 BKN150
TEMPO 1814/1816 SCT020
BECMG 1814/1816 19010G20KT
FM181600 19012G22KT P6SM SCT070
FM182300 20015G25KT P6SM -SHRA BKN040 OVC070
PROB30 1823/1902 VRB20G30KT 11/2SM TSRA BR BKN008 OVC020CB RMK NXT FCST BY 182000Z
CZYZ FIR / North America



MET'MAP, your aeronautical weather chart ! - Copyright ORBIFLY December 2007 - Disclaimer

ORBIFLY MET'MAP TEAM :

Programming & Development : Alexandra Zaïnal
Concept & Development : Baudouin d'Aumeries
Co-Development & Prog : Marc-Olivier Méhu
Technical & hardware support : Manuel Goepfert

Contact : metmap@orbifly.com




SOURCES & CREDITS :

   NOAA       Earth
Advisory